Time;durP1;ratioP1;P1;durP2;ratioP2;P2;SDS_P1;SDS_P2;PMS_P1;PMS_P2;Temp;Humidity;BMP_temperature;BMP_pressure;BME280_temperature;BME280_humidity;BME280_pressure;Samples;Min_cycle;Max_cycle;Signal;HPM_P1;HPM_P2
2022/06/06 00:01:12;;;;;;;;;8.25;6.25;;;;;23.08;50.38;101266.31;4996449;28;45339;-58
2022/06/06 00:03:38;;;;;;;;;7.00;5.75;;;;;23.10;50.66;101275.00;4996624;28;45328;-58
2022/06/06 00:06:08;;;;;;;;;8.00;6.75;;;;;23.11;51.07;101275.88;4996281;28;46051;-58
2022/06/06 00:08:34;;;;;;;;;7.50;6.25;;;;;23.11;50.47;101270.56;4996148;28;45899;-58
2022/06/06 00:10:59;;;;;;;;;5.00;5.00;;;;;23.09;50.31;101270.69;4996172;28;48826;-58
2022/06/06 00:13:24;;;;;;;;;5.25;5.25;;;;;23.09;50.70;101270.69;4996394;28;45454;-56
2022/06/06 00:15:50;;;;;;;;;5.00;5.00;;;;;23.10;50.88;101271.50;4996556;28;45364;-58
2022/06/06 00:18:15;;;;;;;;;4.50;4.00;;;;;23.08;50.59;101271.63;4996145;28;45317;-58
2022/06/06 00:20:40;;;;;;;;;5.25;5.25;;;;;23.09;50.21;101280.38;4996191;28;45451;-58
2022/06/06 00:23:06;;;;;;;;;6.75;5.25;;;;;23.09;50.26;101275.09;4996365;28;45458;-57
2022/06/06 00:25:31;;;;;;;;;7.00;6.25;;;;;23.07;50.20;101275.19;4995887;28;53171;-57
2022/06/06 00:27:56;;;;;;;;;4.75;4.75;;;;;23.08;50.12;101271.63;4996023;28;45451;-57
2022/06/06 00:30:22;;;;;;;;;5.50;5.25;;;;;23.06;49.86;101268.22;4996133;28;45406;-57
2022/06/06 00:35:31;;;;;;;;;5.00;5.00;;;;;23.07;50.21;101264.63;4999253;28;45680;-57
2022/06/06 00:37:57;;;;;;;;;5.75;5.00;;;;;23.07;49.97;101263.75;4999448;28;45401;-57
2022/06/06 00:40:25;;;;;;;;;5.75;5.75;;;;;23.06;50.23;101265.56;4999568;28;45429;-57
2022/06/06 00:42:50;;;;;;;;;3.75;3.75;;;;;23.06;50.34;101255.00;4999944;28;45539;-56
2022/06/06 00:45:32;;;;;;;;;5.25;4.50;;;;;23.05;50.51;101258.56;4999242;28;45448;-58
2022/06/06 00:48:17;;;;;;;;;5.00;4.25;;;;;23.05;50.19;101245.34;4999292;28;45328;-58
2022/06/06 00:51:06;;;;;;;;;4.00;4.00;;;;;23.05;50.05;101249.78;4999458;28;45342;-57
2022/06/06 00:53:41;;;;;;;;;4.75;4.25;;;;;23.05;50.12;101253.28;4998172;28;45448;-58
2022/06/06 00:56:18;;;;;;;;;6.00;3.75;;;;;23.05;50.13;101250.63;4999122;28;45486;-57
2022/06/06 00:58:46;;;;;;;;;6.00;4.25;;;;;23.04;50.06;101246.28;4999194;28;45757;-58
2022/06/06 01:01:12;;;;;;;;;4.00;4.00;;;;;23.03;50.47;101252.53;4999320;28;45355;-58
2022/06/06 01:03:38;;;;;;;;;3.75;3.75;;;;;23.04;50.09;101245.47;5014548;28;45317;-58
2022/06/06 01:06:06;;;;;;;;;4.00;4.00;;;;;23.02;50.32;101250.81;4998923;28;46522;-57
2022/06/06 01:08:36;;;;;;;;;5.00;5.00;;;;;23.01;50.10;101243.81;4998938;28;45829;-58
2022/06/06 01:11:02;;;;;;;;;3.00;3.00;;;;;23.00;50.12;101242.13;4997558;28;45380;-57
2022/06/06 01:13:28;;;;;;;;;3.75;3.75;;;;;23.01;50.08;101233.25;4999135;28;45614;-57
2022/06/06 01:16:27;;;;;;;;;3.50;3.50;;;;;23.02;50.22;101234.94;4998695;28;46357;-57
2022/06/06 01:19:07;;;;;;;;;5.00;5.00;;;;;23.01;50.03;101233.25;4999061;28;45251;-58
2022/06/06 01:22:05;;;;;;;;;5.75;5.00;;;;;23.01;50.01;101235.88;4998836;28;45353;-57
2022/06/06 01:25:20;;;;;;;;;5.00;5.00;;;;;23.01;50.10;101239.41;4999000;28;45172;-58
2022/06/06 01:28:01;;;;;;;;;5.50;4.00;;;;;23.01;50.21;101233.25;4957302;28;45247;-58
2022/06/06 01:30:35;;;;;;;;;6.25;5.00;;;;;22.99;50.29;101229.84;4957306;28;45353;-58
2022/06/06 01:33:03;;;;;;;;;4.00;4.00;;;;;23.01;50.03;101227.97;4982927;28;45382;-57
2022/06/06 01:35:34;;;;;;;;;4.00;4.00;;;;;22.95;50.11;101223.88;4998819;28;45460;-58
2022/06/06 01:38:01;;;;;;;;;3.25;3.25;;;;;23.01;50.03;101227.97;4998509;28;45420;-57
2022/06/06 01:40:38;;;;;;;;;4.00;4.00;;;;;23.00;50.12;101229.78;4998493;28;45739;-57
2022/06/06 01:43:27;;;;;;;;;5.00;5.00;;;;;23.01;50.04;101231.47;4997690;28;45325;-56
2022/06/06 01:46:08;;;;;;;;;5.50;5.00;;;;;23.01;49.88;101230.59;4999026;28;45314;-58
2022/06/06 01:48:39;;;;;;;;;5.50;4.75;;;;;23.01;49.85;101233.25;4998159;28;47099;-58
2022/06/06 01:51:20;;;;;;;;;6.25;4.50;;;;;23.01;49.94;101233.25;4998465;28;45205;-58
2022/06/06 01:53:46;;;;;;;;;7.00;6.75;;;;;23.00;50.04;101228.91;4998502;28;45191;-58
2022/06/06 01:56:15;;;;;;;;;8.00;6.00;;;;;23.01;49.71;101227.97;4998702;28;45607;-58
2022/06/06 01:58:41;;;;;;;;;7.00;5.25;;;;;23.01;50.05;101225.31;4998079;28;48170;-57
2022/06/06 02:01:06;;;;;;;;;5.50;4.00;;;;;23.01;49.93;101228.84;4998054;28;45376;-58
2022/06/06 02:03:33;;;;;;;;;5.00;5.00;;;;;23.01;49.84;101222.69;4998231;28;45371;-57
2022/06/06 02:06:00;;;;;;;;;5.00;5.00;;;;;23.03;49.97;101230.53;4998561;28;45383;-58
2022/06/06 02:08:26;;;;;;;;;4.00;4.00;;;;;23.01;49.50;101223.53;4998276;28;45368;-58
2022/06/06 02:10:51;;;;;;;;;5.75;4.25;;;;;23.01;49.81;101218.25;4998388;28;45312;-57
2022/06/06 02:13:17;;;;;;;;;3.25;3.25;;;;;23.00;49.63;101220.97;4997965;28;45465;-57
2022/06/06 02:15:43;;;;;;;;;5.50;4.25;;;;;23.00;49.62;101221.84;4998260;28;45455;-58
2022/06/06 02:18:09;;;;;;;;;2.75;2.75;;;;;22.98;49.39;101217.59;4996476;28;46878;-57
2022/06/06 02:20:35;;;;;;;;;5.25;5.00;;;;;23.01;49.65;101228.84;4997789;28;45273;-57
2022/06/06 02:23:01;;;;;;;;;7.50;5.50;;;;;23.00;49.25;101215.69;4997911;28;45477;-57
2022/06/06 02:25:29;;;;;;;;;5.75;5.00;;;;;23.01;49.21;101223.53;4998388;28;45384;-57
2022/06/06 02:27:54;;;;;;;;;6.00;5.00;;;;;22.99;49.14;101219.25;4997973;28;46627;-57
2022/06/06 02:30:23;;;;;;;;;5.00;3.75;;;;;23.00;49.20;101219.19;4997669;28;45338;-57
2022/06/06 02:32:49;;;;;;;;;5.50;5.00;;;;;23.01;49.16;101222.69;4997742;28;45234;-57
2022/06/06 02:35:18;;;;;;;;;4.25;4.25;;;;;23.01;49.35;101220.03;4997828;28;45522;-57
2022/06/06 02:37:46;;;;;;;;;5.00;5.00;;;;;23.00;49.50;101215.69;4997484;28;46210;-57
2022/06/06 02:40:14;;;;;;;;;3.50;3.50;;;;;23.00;49.26;101218.31;4997578;28;46075;-57
2022/06/06 02:42:39;;;;;;;;;4.00;3.50;;;;;23.00;49.30;101226.25;4997576;28;45237;-57
2022/06/06 02:45:06;;;;;;;;;5.50;4.00;;;;;22.99;48.85;101221.91;4997720;28;45529;-58
2022/06/06 02:47:32;;;;;;;;;4.00;4.00;;;;;23.00;48.90;101229.78;4997298;28;45390;-57
2022/06/06 02:49:57;;;;;;;;;5.00;5.00;;;;;23.00;49.37;101220.97;4997571;28;45277;-57
2022/06/06 02:52:23;;;;;;;;;4.00;4.00;;;;;22.99;48.98;101220.13;4996078;28;45450;-57
2022/06/06 02:54:48;;;;;;;;;4.00;4.00;;;;;22.98;48.64;101220.25;5012784;28;45416;-57
2022/06/06 02:57:14;;;;;;;;;4.00;4.00;;;;;23.00;48.92;101213.03;4997018;28;51509;-57
2022/06/06 02:59:43;;;;;;;;;4.75;4.75;;;;;22.99;48.94;101213.97;5012546;28;45502;-57
2022/06/06 03:02:09;;;;;;;;;4.00;4.00;;;;;22.99;48.63;101217.50;5003304;28;45288;-58
2022/06/06 03:04:38;;;;;;;;;5.50;4.00;;;;;22.98;48.61;101210.50;5017323;28;45537;-57
2022/06/06 03:07:40;;;;;;;;;5.00;4.00;;;;;22.98;48.65;101217.59;5017072;28;45289;-58
2022/06/06 03:10:13;;;;;;;;;4.75;3.25;;;;;22.98;48.42;101214.94;5016929;28;45303;-57
2022/06/06 03:13:04;;;;;;;;;3.00;3.00;;;;;22.96;48.08;101222.13;5017046;28;45423;-58
2022/06/06 03:22:20;;;;;;;;;3.00;3.00;;;;;22.93;47.98;101225.78;4996854;28;45399;-57
2022/06/06 03:24:53;;;;;;;;;3.75;3.00;;;;;22.91;48.02;101222.41;4997059;28;45659;-57
2022/06/06 03:27:28;;;;;;;;;6.00;4.00;;;;;22.91;47.68;101221.53;4997178;28;45265;-58
2022/06/06 03:30:29;;;;;;;;;3.00;3.00;;;;;22.91;47.90;101224.16;4996896;28;45424;-56
2022/06/06 03:33:02;;;;;;;;;2.75;2.75;;;;;22.91;47.83;101232.09;4996569;28;45327;-57
2022/06/06 03:35:38;;;;;;;;;5.25;3.00;;;;;22.89;47.68;101229.56;4997134;28;45349;-57
2022/06/06 03:38:30;;;;;;;;;3.75;3.75;;;;;22.88;47.19;101229.63;4996124;28;45393;-57
2022/06/06 03:41:01;;;;;;;;;4.25;3.50;;;;;22.85;47.28;101226.25;4994008;28;46730;-56
2022/06/06 03:43:46;;;;;;;;;3.00;3.00;;;;;22.85;47.24;101233.31;4994528;28;45837;-57
2022/06/06 03:46:32;;;;;;;;;4.50;3.25;;;;;22.84;47.21;101232.47;4995223;28;45467;-57
2022/06/06 03:49:25;;;;;;;;;4.00;2.00;;;;;22.81;47.34;101230.00;4996135;28;45530;-57
2022/06/06 03:52:15;;;;;;;;;3.00;3.00;;;;;22.81;47.10;101232.66;4995411;28;45753;-58
2022/06/06 03:54:58;;;;;;;;;2.00;2.00;;;;;22.79;46.99;101226.59;4996446;28;45235;-57
2022/06/06 03:57:26;;;;;;;;;2.00;2.00;;;;;22.79;47.14;101225.75;4996716;28;45369;-56
2022/06/06 03:59:57;;;;;;;;;3.00;3.00;;;;;22.79;46.91;101234.53;4996902;28;45567;-57
2022/06/06 04:02:35;;;;;;;;;2.00;2.00;;;;;22.77;46.69;101231.13;4996298;28;46247;-56
2022/06/06 04:05:05;;;;;;;;;3.25;3.00;;;;;22.78;47.06;101237.25;4997374;28;45429;-56
2022/06/06 04:07:31;;;;;;;;;2.25;2.25;;;;;22.76;46.50;101237.38;4998833;28;45417;-57
2022/06/06 04:09:57;;;;;;;;;4.00;3.00;;;;;22.76;46.80;101247.06;5000117;28;45560;-56
2022/06/06 04:12:44;;;;;;;;;5.00;5.00;;;;;22.76;46.71;101239.13;4999638;28;46237;-57
2022/06/06 04:15:48;;;;;;;;;4.50;3.00;;;;;22.74;46.62;101247.16;4999771;28;45332;-57
2022/06/06 04:18:49;;;;;;;;;2.75;2.75;;;;;22.76;46.57;101244.44;4999919;28;45341;-56
2022/06/06 04:21:32;;;;;;;;;2.25;2.25;;;;;22.75;46.59;101242.72;4999819;28;45191;-55
2022/06/06 04:24:02;;;;;;;;;2.50;2.50;;;;;22.75;46.61;101251.50;4998344;28;47754;-55
2022/06/06 04:26:40;;;;;;;;;4.00;4.00;;;;;22.75;46.56;101254.16;4999603;28;45476;-55
2022/06/06 04:29:13;;;;;;;;;3.00;3.00;;;;;22.75;46.43;101250.66;4999784;28;45256;-56
2022/06/06 04:31:57;;;;;;;;;2.50;2.50;;;;;22.74;46.71;101257.75;4999835;28;45428;-56
2022/06/06 04:34:37;;;;;;;;;3.00;3.00;;;;;22.74;46.56;101247.16;4999509;28;45345;-55
2022/06/06 04:37:16;;;;;;;;;4.25;2.75;;;;;22.75;46.76;101248.00;4999628;28;45263;-52
2022/06/06 04:39:55;;;;;;;;;3.00;3.00;;;;;22.75;46.79;101248.88;4999697;28;45422;-56
2022/06/06 04:43:00;;;;;;;;;4.00;2.50;;;;;22.76;46.93;101250.59;4999711;28;45286;-55
2022/06/06 04:45:38;;;;;;;;;3.25;2.00;;;;;22.76;46.80;101247.94;4981556;28;46293;-53
2022/06/06 04:48:05;;;;;;;;;3.75;3.75;;;;;22.76;46.65;101245.28;4999899;28;45667;-58
2022/06/06 04:50:32;;;;;;;;;2.25;2.25;;;;;22.75;46.38;101243.59;4998476;28;45352;-55
2022/06/06 04:53:06;;;;;;;;;4.00;4.00;;;;;22.76;46.61;101244.44;4999552;28;45498;-55
2022/06/06 04:55:33;;;;;;;;;3.00;3.00;;;;;22.75;46.50;101242.72;4999376;28;45427;-56
2022/06/06 04:58:02;;;;;;;;;2.25;2.25;;;;;22.76;46.19;101247.94;4999226;28;45656;-55
2022/06/06 05:00:34;;;;;;;;;3.50;2.50;;;;;22.74;46.37;101247.16;4999319;28;45297;-56
2022/06/06 05:02:59;;;;;;;;;3.75;3.75;;;;;22.75;46.10;101243.59;4999457;28;45364;-56
2022/06/06 05:05:33;;;;;;;;;3.75;2.25;;;;;22.75;46.38;101248.88;4999076;28;46195;-56
2022/06/06 05:08:15;;;;;;;;;2.00;2.00;;;;;22.75;46.07;101248.00;4998968;28;45301;-55
2022/06/06 05:11:01;;;;;;;;;1.75;1.50;;;;;22.74;46.22;101249.81;4997724;28;45350;-55
2022/06/06 05:13:52;;;;;;;;;4.00;3.00;;;;;22.75;46.35;101254.16;4997508;28;45588;-56
2022/06/06 05:16:37;;;;;;;;;2.50;2.50;;;;;22.74;46.15;101241.88;4996665;28;46358;-56
2022/06/06 05:19:53;;;;;;;;;2.00;1.25;;;;;22.74;46.18;101247.16;4997881;28;45846;-55
2022/06/06 05:23:01;;;;;;;;;2.00;2.00;;;;;22.73;45.93;101245.47;4991335;28;45287;-55
2022/06/06 05:25:58;;;;;;;;;1.50;1.50;;;;;22.73;45.78;101245.47;4999151;28;45407;-59
2022/06/06 05:28:26;;;;;;;;;2.00;2.00;;;;;22.73;45.80;101256.03;4998602;28;46440;-57
2022/06/06 05:31:08;;;;;;;;;2.50;1.00;;;;;22.73;45.80;101257.81;4998712;28;45247;-57
2022/06/06 05:33:45;;;;;;;;;3.00;2.00;;;;;22.74;45.46;101262.16;4999120;28;45363;-56
2022/06/06 05:36:43;;;;;;;;;0.75;0.75;;;;;22.74;45.64;101259.50;4999057;28;45293;-56
2022/06/06 05:39:13;;;;;;;;;1.00;1.00;;;;;22.74;45.83;101259.50;4982624;28;46574;-57
2022/06/06 05:41:48;;;;;;;;;1.50;1.50;;;;;22.73;45.88;101261.31;5013593;28;45717;-56
2022/06/06 05:44:25;;;;;;;;;2.00;1.00;;;;;22.73;45.86;101258.69;4998672;28;45383;-56
2022/06/06 05:47:14;;;;;;;;;3.00;3.00;;;;;22.74;45.32;101262.16;5013843;28;45238;-57
2022/06/06 05:49:56;;;;;;;;;2.00;2.00;;;;;22.74;45.43;101257.75;4998338;28;45414;-56
2022/06/06 05:52:39;;;;;;;;;1.00;1.00;;;;;22.74;45.50;101254.22;4998029;28;45749;-56
2022/06/06 05:55:30;;;;;;;;;1.00;1.00;;;;;22.74;45.27;101257.75;4998904;28;45379;-55
2022/06/06 05:58:20;;;;;;;;;1.75;1.25;;;;;22.74;45.24;101263.03;4998397;28;45459;-55
2022/06/06 06:00:58;;;;;;;;;2.00;2.00;;;;;22.75;45.37;101269.16;4998030;28;46197;-55
2022/06/06 06:03:55;;;;;;;;;1.00;1.00;;;;;22.75;45.46;101270.00;5013410;28;45745;-56
2022/06/06 06:06:30;;;;;;;;;1.00;1.00;;;;;22.75;45.40;101269.16;4998171;28;45320;-56
2022/06/06 06:09:29;;;;;;;;;2.00;2.00;;;;;22.75;45.42;101270.00;4998411;28;45328;-55
2022/06/06 06:12:12;;;;;;;;;1.00;1.00;;;;;22.75;44.95;101275.28;4997946;28;46394;-55
2022/06/06 06:14:56;;;;;;;;;2.25;0.25;;;;;22.76;45.37;101276.13;4998325;28;45727;-55
2022/06/06 06:17:25;;;;;;;;;0.75;0.75;;;;;22.75;45.45;101275.28;4998059;28;45435;-56
2022/06/06 06:19:59;;;;;;;;;1.00;1.00;;;;;22.75;45.13;101280.59;4998202;28;45255;-54
2022/06/06 06:22:28;;;;;;;;;1.00;1.00;;;;;22.76;45.56;101284.94;4998013;28;45422;-55
2022/06/06 06:25:00;;;;;;;;;2.00;1.00;;;;;22.77;44.96;101283.97;4997923;28;45190;-55
2022/06/06 06:27:28;;;;;;;;;0.00;0.00;;;;;22.78;45.55;101285.66;4997790;28;45265;-56
2022/06/06 06:29:53;;;;;;;;;1.00;1.00;;;;;22.76;45.03;101284.94;4996654;28;45590;-56
2022/06/06 06:32:21;;;;;;;;;1.00;1.00;;;;;22.77;45.25;101286.59;4997560;28;45500;-54
2022/06/06 06:35:14;;;;;;;;;1.00;1.00;;;;;22.77;45.15;101291.88;5012895;28;45306;-54
2022/06/06 06:38:15;;;;;;;;;1.25;1.25;;;;;22.78;45.22;101293.59;4998140;28;45408;-56
2022/06/06 06:41:21;;;;;;;;;1.00;1.00;;;;;22.78;45.37;101301.53;4998181;28;45753;-55
2022/06/06 06:44:00;;;;;;;;;1.25;1.00;;;;;22.78;45.30;101303.31;4993705;28;46208;-57
2022/06/06 06:46:27;;;;;;;;;1.00;1.00;;;;;22.77;44.74;101299.81;4997404;28;45835;-57
2022/06/06 06:49:14;;;;;;;;;1.00;1.00;;;;;22.77;44.58;101302.47;4997667;28;45376;-56
2022/06/06 06:52:08;;;;;;;;;1.25;1.00;;;;;22.77;44.97;101301.63;5013140;28;45374;-56
2022/06/06 06:55:05;;;;;;;;;1.00;1.00;;;;;22.77;44.76;101305.09;4997564;28;45356;-56
2022/06/06 06:58:09;;;;;;;;;1.50;1.50;;;;;22.77;44.63;101299.81;4997516;28;45237;-57
2022/06/06 07:00:49;;;;;;;;;1.50;1.50;;;;;22.76;44.78;101299.91;4974725;28;45317;-54
2022/06/06 07:09:13;;;;;;;;;1.00;1.00;;;;;22.79;44.88;101300.59;4997188;28;45681;-55
2022/06/06 07:11:55;;;;;;;;;2.00;1.00;;;;;22.76;44.53;101292.84;4997516;28;45278;-55
2022/06/06 07:14:23;;;;;;;;;1.25;1.00;;;;;22.82;44.74;101308.34;4997443;28;45214;-56
2022/06/06 07:16:55;;;;;;;;;0.00;0.00;;;;;22.84;44.43;101305.59;4996815;28;46354;-56
2022/06/06 07:19:29;;;;;;;;;1.00;1.00;;;;;22.87;44.79;101304.59;4995853;28;45822;-56
2022/06/06 07:21:58;;;;;;;;;1.00;1.00;;;;;22.88;44.80;101301.00;4996930;28;45487;-56
2022/06/06 07:24:23;;;;;;;;;4.50;1.50;;;;;22.90;44.82;101307.91;4997288;28;45527;-55
2022/06/06 07:26:49;;;;;;;;;1.00;1.00;;;;;22.91;44.96;101300.81;4996835;28;45970;-56
2022/06/06 07:29:18;;;;;;;;;2.00;1.00;;;;;22.93;44.69;101298.94;4996965;28;45274;-53
2022/06/06 07:32:17;;;;;;;;;3.50;1.00;;;;;22.95;44.51;101291.78;4996990;28;45360;-56
2022/06/06 07:35:03;;;;;;;;;0.50;0.50;;;;;22.98;45.01;101292.44;4995585;28;63116;-55
2022/06/06 07:37:48;;;;;;;;;1.00;1.00;;;;;23.00;44.86;101287.94;4996760;28;45383;-51
2022/06/06 07:40:37;;;;;;;;;2.00;0.50;;;;;23.03;44.89;101297.47;4996095;28;45779;-56
2022/06/06 07:43:05;;;;;;;;;2.00;1.00;;;;;23.04;44.64;101293.03;4996870;28;45435;-55
2022/06/06 07:45:44;;;;;;;;;0.25;0.25;;;;;23.05;44.90;101287.66;4996970;28;45165;-55
2022/06/06 07:48:23;;;;;;;;;0.00;0.00;;;;;23.08;44.56;101282.19;4996556;28;46211;-58
2022/06/06 07:50:53;;;;;;;;;0.00;0.00;;;;;23.07;45.00;101282.25;4996595;28;45628;-52
2022/06/06 07:53:27;;;;;;;;;1.00;1.00;;;;;23.10;44.81;101284.72;4996765;28;45331;-58
2022/06/06 07:56:06;;;;;;;;;2.50;1.00;;;;;23.10;44.54;101279.44;4996827;28;45320;-55
2022/06/06 07:58:42;;;;;;;;;0.75;0.75;;;;;23.13;44.37;101280.09;4996408;28;45565;-59
2022/06/06 08:01:26;;;;;;;;;2.75;1.00;;;;;23.15;44.58;101283.53;4996479;28;45328;-53
2022/06/06 08:04:06;;;;;;;;;0.50;0.50;;;;;23.15;44.36;101283.53;4996549;28;45318;-56
2022/06/06 08:06:43;;;;;;;;;1.00;1.00;;;;;23.14;44.26;101287.09;4996697;28;45409;-51
2022/06/06 08:09:17;;;;;;;;;0.75;0.75;;;;;23.14;44.30;101280.97;4996422;28;46627;-52
2022/06/06 08:11:54;;;;;;;;;1.00;1.00;;;;;23.13;44.47;101277.47;4995229;28;45198;-56
2022/06/06 08:14:47;;;;;;;;;1.25;1.25;;;;;23.12;44.06;101286.34;4996533;28;45237;-52
2022/06/06 08:17:37;;;;;;;;;1.75;1.00;;;;;23.10;43.82;101277.63;4997028;28;45167;-54
2022/06/06 08:20:06;;;;;;;;;0.75;0.75;;;;;23.09;44.29;101272.44;4995998;28;45400;-52
2022/06/06 08:22:34;;;;;;;;;1.00;1.00;;;;;23.08;43.97;101276.91;4996089;28;45389;-52
2022/06/06 08:25:03;;;;;;;;;0.25;0.25;;;;;23.07;44.14;101280.50;4996355;28;45254;-51
2022/06/06 08:27:28;;;;;;;;;1.00;1.00;;;;;23.06;44.43;101273.50;4996338;28;45607;-51
2022/06/06 08:29:54;;;;;;;;;2.00;1.00;;;;;23.06;43.60;101273.50;4995981;28;46214;-53
2022/06/06 08:32:19;;;;;;;;;2.75;1.75;;;;;23.04;43.80;101275.38;4995824;28;45416;-55
2022/06/06 16:38:08;;;;;;;;;2.25;1.00;;;;;23.35;39.14;101119.31;5870887;22;46586;-64
2022/06/06 16:40:37;;;;;;;;;0.00;0.00;;;;;23.35;39.60;101120.16;4974953;28;45391;-62
2022/06/06 16:49:47;;;;;;;;;0.00;0.00;;;;;23.35;38.84;101116.69;4995776;28;45306;-68
2022/06/06 16:52:49;;;;;;;;;1.00;1.00;;;;;23.33;39.31;101100.88;4959215;28;45514;-64
2022/06/06 16:55:29;;;;;;;;;1.00;1.00;;;;;23.32;39.51;101109.75;4976243;28;47462;-65
2022/06/06 16:58:39;;;;;;;;;1.00;0.00;;;;;23.33;39.24;101105.34;4988875;28;45742;-63
2022/06/06 17:01:56;;;;;;;;;0.00;0.00;;;;;23.32;39.06;101099.19;4995723;28;45334;-65
2022/06/06 17:04:24;;;;;;;;;0.00;0.00;;;;;23.31;39.12;101111.56;4973247;28;45438;-68
2022/06/06 17:10:08;;;;;;;;;1.00;1.00;;;;;23.31;39.23;101110.75;4995585;28;45436;-63
2022/06/06 17:12:59;;;;;;;;;0.00;0.00;;;;;23.29;38.91;101113.47;4996567;28;45322;-68
2022/06/06 17:15:32;;;;;;;;;1.00;0.00;;;;;23.30;39.26;101117.81;4999203;28;45527;-70
2022/06/06 17:17:57;;;;;;;;;0.75;0.75;;;;;23.30;39.20;101109.88;4998813;28;46259;-69
2022/06/06 17:20:29;;;;;;;;;0.00;0.00;;;;;23.29;38.76;101116.09;4998692;28;45331;-70
2022/06/06 17:23:01;;;;;;;;;1.00;1.00;;;;;23.27;38.80;101115.34;4998496;28;45272;-69
2022/06/06 17:25:35;;;;;;;;;1.00;1.00;;;;;23.29;39.15;101107.34;4997580;28;45545;-57
2022/06/06 17:28:27;;;;;;;;;1.00;1.00;;;;;23.29;39.15;101115.25;4998554;28;45478;-60
2022/06/06 17:31:16;;;;;;;;;1.00;1.00;;;;;23.29;39.12;101117.91;4951780;28;45711;-60
2022/06/06 17:33:51;;;;;;;;;1.00;1.00;;;;;23.28;38.70;101114.41;4998440;28;45278;-57
2022/06/06 17:36:48;;;;;;;;;1.00;1.00;;;;;23.25;39.13;101108.47;4999170;28;45228;-59
2022/06/06 17:39:19;;;;;;;;;2.00;0.75;;;;;23.28;39.07;101110.91;4954839;28;45448;-62
2022/06/06 17:42:09;;;;;;;;;1.00;1.00;;;;;23.27;39.37;101112.69;4997851;28;45482;-59
2022/06/06 17:44:56;;;;;;;;;1.75;1.00;;;;;23.28;39.35;101113.56;4998645;28;45403;-61
2022/06/06 17:47:31;;;;;;;;;1.00;1.00;;;;;23.27;39.40;101114.50;4998735;28;45495;-61
2022/06/06 17:50:10;;;;;;;;;2.50;1.00;;;;;23.27;39.27;101120.63;4998294;28;45446;-54
2022/06/06 17:52:36;;;;;;;;;1.00;1.00;;;;;23.30;39.00;101122.25;4998319;28;45346;-59
2022/06/06 17:55:04;;;;;;;;;1.25;1.25;;;;;23.30;38.87;101117.81;4998459;28;45473;-59
2022/06/06 17:57:39;;;;;;;;;1.50;1.25;;;;;23.30;38.85;101119.63;4996325;28;45519;-61
2022/06/06 18:00:34;;;;;;;;;3.00;1.75;;;;;23.29;38.91;101126.69;4997975;28;45378;-59
2022/06/06 18:03:08;;;;;;;;;1.00;1.00;;;;;23.26;38.93;101121.56;4967517;28;45749;-60
2022/06/06 18:05:49;;;;;;;;;1.00;1.00;;;;;23.28;38.73;101132.06;4998270;28;45761;-58
2022/06/06 18:08:44;;;;;;;;;1.00;1.00;;;;;23.28;39.03;101124.16;4998339;28;45327;-61
2022/06/06 18:11:53;;;;;;;;;1.00;1.00;;;;;23.27;39.06;101122.44;4963808;28;47234;-59
2022/06/06 18:14:38;;;;;;;;;2.75;1.50;;;;;23.26;38.93;101118.94;4977065;28;45833;-57
2022/06/06 18:17:16;;;;;;;;;3.00;1.00;;;;;23.26;38.86;101112.81;4978180;28;45284;-59
2022/06/06 18:19:43;;;;;;;;;2.00;1.00;;;;;23.25;39.09;101108.47;4978370;28;45403;-60
2022/06/06 18:22:20;;;;;;;;;1.00;1.00;;;;;23.26;38.83;101118.09;4978007;28;45633;-60
2022/06/06 18:24:48;;;;;;;;;0.50;0.50;;;;;23.24;38.79;101109.41;4977586;28;45744;-60
2022/06/06 18:27:25;;;;;;;;;0.25;0.25;;;;;23.26;38.71;101110.16;4978430;28;45375;-58
2022/06/06 18:29:59;;;;;;;;;2.25;2.00;;;;;23.25;38.75;101113.75;4992247;28;45506;-62
2022/06/06 18:32:28;;;;;;;;;1.00;1.00;;;;;23.24;38.82;101114.69;4997786;28;47294;-60
2022/06/06 18:34:56;;;;;;;;;2.00;1.25;;;;;23.25;39.26;101116.41;4997937;28;45329;-59
2022/06/06 18:37:28;;;;;;;;;1.50;1.00;;;;;23.24;39.10;101112.91;4997828;28;45357;-57
2022/06/06 18:39:57;;;;;;;;;1.75;1.75;;;;;23.24;39.15;101119.97;4997854;28;45497;-59
2022/06/06 18:42:31;;;;;;;;;1.75;1.75;;;;;23.24;39.26;101119.97;4997614;28;47294;-59
2022/06/06 18:45:24;;;;;;;;;4.25;3.25;;;;;23.23;39.25;101115.63;4997582;28;45707;-56
2022/06/06 18:47:57;;;;;;;;;33.25;30.50;;;;;23.23;39.60;101113.00;4996424;28;45539;-59
2022/06/06 18:50:35;;;;;;;;;33.75;31.00;;;;;23.20;39.22;101108.75;4996411;28;45428;-57
2022/06/06 18:53:22;;;;;;;;;74.50;63.50;;;;;23.21;39.63;101109.59;4995174;28;46099;-57
2022/06/06 18:55:50;;;;;;;;;98.25;91.00;;;;;23.22;39.67;101119.22;4994754;28;45468;-57
2022/06/06 18:58:21;;;;;;;;;76.25;65.75;;;;;23.17;39.58;101109.78;4997052;28;45402;-56
2022/06/06 19:00:50;;;;;;;;;75.25;61.50;;;;;23.19;39.56;101114.13;4996580;28;45445;-55
2022/06/06 19:03:36;;;;;;;;;75.75;66.25;;;;;23.21;39.57;101120.16;4996367;28;46247;-57
2022/06/06 19:06:13;;;;;;;;;69.25;54.75;;;;;23.19;39.69;101117.63;4995058;28;45462;-57
2022/06/06 19:08:38;;;;;;;;;63.00;51.00;;;;;23.18;39.91;101118.53;4996101;28;45334;-61
2022/06/06 19:11:17;;;;;;;;;57.50;45.50;;;;;23.17;39.49;101123.00;4996578;28;45422;-61
2022/06/06 19:14:00;;;;;;;;;55.00;45.00;;;;;23.19;39.91;101125.56;4994355;28;46804;-59
2022/06/06 19:16:32;;;;;;;;;52.00;44.00;;;;;23.19;39.95;101119.41;4996570;28;45331;-57
2022/06/06 19:19:00;;;;;;;;;52.50;42.25;;;;;23.17;39.66;101116.84;4994923;28;45775;-61
2022/06/06 19:21:29;;;;;;;;;45.50;36.25;;;;;23.18;39.50;101113.25;4996529;28;45340;-60
2022/06/06 19:23:57;;;;;;;;;44.50;36.25;;;;;23.17;39.62;101116.84;4996116;28;46373;-61
2022/06/06 19:26:28;;;;;;;;;43.50;36.25;;;;;23.17;39.75;101115.06;4996125;28;45382;-60
2022/06/06 19:28:59;;;;;;;;;38.25;34.75;;;;;23.16;39.69;101110.72;4996500;28;45371;-62
2022/06/06 19:31:32;;;;;;;;;38.25;32.75;;;;;23.16;39.98;101110.72;5011497;28;45410;-61
2022/06/06 19:34:08;;;;;;;;;38.00;32.25;;;;;23.17;39.84;101107.13;4994549;28;48061;-61
2022/06/06 19:36:36;;;;;;;;;36.75;32.50;;;;;23.17;39.90;101112.41;4994726;28;46055;-61
2022/06/06 19:39:31;;;;;;;;;36.00;29.75;;;;;23.17;39.76;101116.84;4996095;28;45322;-61
2022/06/06 19:41:58;;;;;;;;;28.75;25.75;;;;;23.18;39.78;101113.25;4996368;28;45437;-60
2022/06/06 19:44:25;;;;;;;;;27.75;24.25;;;;;23.19;39.74;101119.41;5011127;28;46442;-60
2022/06/06 19:46:58;;;;;;;;;21.75;20.50;;;;;23.17;39.85;101107.13;4995578;28;45692;-60
2022/06/06 19:49:27;;;;;;;;;25.25;25.00;;;;;23.13;39.99;101102.13;4996119;28;45181;-56
2022/06/06 19:51:54;;;;;;;;;23.25;21.25;;;;;23.15;40.10;101106.38;4995946;28;45298;-57
2022/06/06 19:54:39;;;;;;;;;23.75;18.25;;;;;23.17;39.94;101115.06;4995990;28;46354;-59
2022/06/06 19:57:21;;;;;;;;;20.00;17.25;;;;;23.19;40.15;101122.03;4995680;28;45442;-58
2022/06/06 19:59:57;;;;;;;;;19.25;16.25;;;;;23.19;40.16;101119.41;4995550;28;45418;-60
2022/06/06 20:02:31;;;;;;;;;15.00;15.00;;;;;23.17;40.21;101123.00;4996326;28;45470;-57
2022/06/06 20:05:06;;;;;;;;;17.25;16.00;;;;;23.19;40.23;101119.41;4995519;28;46548;-59
2022/06/06 20:07:40;;;;;;;;;14.75;13.00;;;;;23.19;40.22;101129.97;4995156;28;45849;-58
2022/06/06 20:10:20;;;;;;;;;16.75;13.00;;;;;23.17;40.20;101125.63;4995797;28;45358;-59
2022/06/06 20:12:49;;;;;;;;;14.50;11.00;;;;;23.17;40.02;101120.34;4995488;28;45241;-60
2022/06/06 20:15:40;;;;;;;;;13.50;12.50;;;;;23.17;39.84;101130.91;4995157;28;46910;-58
2022/06/06 20:18:20;;;;;;;;;10.75;9.75;;;;;23.18;40.25;101131.75;4992623;28;45896;-58
2022/06/06 20:20:46;;;;;;;;;8.50;8.50;;;;;23.18;39.99;101139.69;4995024;28;45394;-59
2022/06/06 20:23:30;;;;;;;;;11.00;11.00;;;;;23.16;40.14;101137.16;4995798;28;45314;-59
2022/06/06 20:25:57;;;;;;;;;10.50;9.25;;;;;23.19;40.12;101135.28;4994195;28;45344;-58
2022/06/06 20:28:38;;;;;;;;;9.75;9.50;;;;;23.18;40.27;101137.03;4995737;28;45402;-57
2022/06/06 20:34:03;;;;;;;;;10.25;8.25;;;;;23.20;40.14;101142.28;4995400;28;45330;-59
2022/06/06 20:36:45;;;;;;;;;9.75;8.00;;;;;23.17;40.47;101138.00;4995011;28;46113;-56
2022/06/06 20:39:12;;;;;;;;;8.00;7.00;;;;;23.19;40.25;101141.41;4995151;28;45849;-58